Tiempo atmosférico en la estación meteorológica de Capella, Huesca (600 m.)



Fecha
DESCASC
Temp. máxima en grados centígrados (hora)
DESCASC
Temp. mínima en grados centígrados (hora)
DESCASC
Temp. media en grados centígrados
DESCASC
Racha de viento máxima en m/sg (hora)
DESCASC
Velocidad máxima media en intervalos de 10 minutos(hora)
DESCASC
Precipitaciones diarias en mm
DESCASC
Precipitaciones de 00:00 a 06:00 en mm
DESCASC
Precipitaciones de 06:00 a 12:00 en mm
DESCASC
Precipitaciones de 12:00 a 18:00 en mm
DESCASC
Precipitaciones de 18:00 a 24:00 en mm
DESCASC
23-06-2019 33.5 (17:00) 14.3 (07:20) 23.9 9.72 (21:30) 5.28 (21:10) 0 0 0 0 0
22-06-2019 29 (19:30) 11.2 (06:20) 20.1 7.78 (14:40) 4.17 (14:40) 0 0 0 0 0
21-06-2019 25.5 (19:10) 14.5 (05:20) 20 8.89 (16:20) 4.44 (17:10) 0 0 0 0 0
20-06-2019 28.4 (17:30) 14.7 (00:00) 21.5 12.5 (19:10) 7.22 (19:10) 8.4 0 0 0 8.4
19-06-2019 -- (--) -- (--) -- -- (--) -- (--) -- -- -- -- 0
18-06-2019 -- (--) -- (--) -- -- (--) -- (--) -- 0 0 0 --
17-06-2019 31.3 (17:10) 10.6 (00:00) 20.9 13.89 (16:00) 6.39 (22:00) 0 0 0 0 0
16-06-2019 27.8 (18:10) 7.9 (00:00) 17.8 8.61 (13:10) 4.44 (13:30) 0 0 0 0 0
15-06-2019 25.7 (16:20) 12.3 (00:00) 19 10.28 (17:20) 5.83 (11:20) 0 0 0 0 0
14-06-2019 26.1 (19:10) 11.5 (00:00) 18.8 9.72 (13:50) 6.39 (13:40) 0 0 0 0 0
13-06-2019 26.2 (17:40) 7.3 (00:00) 16.8 9.17 (19:30) 5 (19:10) 0 0 0 0 0
12-06-2019 21.1 (19:10) 2.9 (00:00) 12 9.44 (16:10) 5 (15:30) 0 0 0 0 0
11-06-2019 16.1 (18:30) 7.6 (00:00) 11.9 8.89 (16:30) 6.11 (16:30) 2 1 0.4 0.2 0.4
10-06-2019 24.5 (16:40) 11.7 (00:00) 18.1 10.56 (17:30) 6.67 (17:30) 0 0 0 0 0
09-06-2019 27.5 (17:20) 12.9 (00:00) 20.2 7.78 (14:30) 4.44 (16:40) 0.8 0.8 0 0 0
08-06-2019 26.1 (16:10) 4.7 (00:00) 15.4 7.22 (19:50) 3.89 (16:40) 0 0 0 0 0
07-06-2019 21.6 (17:30) 8.7 (00:00) 15.2 9.17 (17:10) 5.28 (17:40) 3.2 0 3.2 0 0
06-06-2019 23 (16:20) 6.4 (00:00) 14.7 10 (17:50) 5.28 (17:20) 0 0 0 0 0
05-06-2019 20.3 (00:00) 10.5 (00:00) 15.4 10 (15:50) 5.28 (15:50) 3.2 0 3.2 0 0
04-06-2019 31 (17:10) 12.9 (00:00) 21.9 8.61 (18:10) 5 (23:40) 0 0 0 0 0
03-06-2019 30.6 (17:40) 14.7 (00:00) 22.7 9.17 (19:20) 5.28 (19:50) 0 0 0 0 0
02-06-2019 31.2 (17:40) 10 (00:00) 20.6 7.78 (18:20) 4.17 (16:10) 0 0 0 0 0
01-06-2019 29.1 (16:30) 10.6 (00:00) 19.9 7.78 (14:20) 3.89 (18:40) 0 0 0 0 0
31-05-2019 27.6 (18:20) 9.4 (00:00) 18.5 7.78 (16:30) 4.72 (15:30) 0 0 0 0 0
30-05-2019 25.9 (18:00) 6.3 (00:00) 16.1 7.78 (17:10) 4.72 (18:10) 0 0 0 0 0
29-05-2019 24.3 (17:40) 4.8 (00:00) 14.5 7.78 (19:10) 4.72 (19:40) 0 0 0 0 0
28-05-2019 23.9 (17:10) 8.8 (00:00) 16.3 11.67 (19:30) 6.67 (19:30) 0 0 0 0 0

Gráficas

Temp. máximas Temp. mínimas Temp. medias Precipitaciones Rachas de viento máximas Velocidades máximas media en intervalos de 10 minutos

Datos horarios

Fecha y hora oficial Temperatura (ºC) Velocidad del viento (km/h) Dirección del viento Racha (km/h) Dirección de racha Precipitación (mm) Presión (hPa) Tendencia (hPa) Humedad (%)
2019-06-26 23:00:00 27.7 9 Este 18 Nordeste 0 -- -- 30
2019-06-26 22:00:00 29.4 9 Nordeste 18 Nordeste 0 -- -- 27
2019-06-26 21:00:00 32.1 11 Nordeste 25 Nordeste 0 -- -- 24
2019-06-26 20:00:00 34.6 14 Nordeste 30 Este 0 -- -- 20
2019-06-26 19:00:00 35.8 15 Nordeste 32 Nordeste 0 -- -- 19
2019-06-26 18:00:00 36.8 18 Nordeste 38 Nordeste 0 -- -- 18
2019-06-26 17:00:00 37.4 13 Este 34 Este 0 -- -- 17
2019-06-26 16:00:00 37 16 Este 40 Nordeste 0 -- -- 18
2019-06-26 15:00:00 36.4 18 Este 37 Este 0 -- -- 19
2019-06-26 14:00:00 36.2 11 Este 33 Este 0 -- -- 20
2019-06-26 13:00:00 36 14 Nordeste 32 Nordeste 0 -- -- 19
2019-06-26 12:00:00 34.7 19 Nordeste 33 Este 0 -- -- 19
2019-06-26 11:00:00 32.9 20 Nordeste 37 Nordeste 0 -- -- 20
2019-06-26 10:00:00 30.4 16 Nordeste 31 Este 0 -- -- 24
2019-06-26 09:00:00 25.2 6 Nordeste 13 Nordeste 0 -- -- 42
2019-06-26 08:00:00 21.5 6 Nordeste 16 Nordeste 0 -- -- 48
2019-06-26 07:00:00 19.4 9 Nordeste 16 Este 0 -- -- 49
2019-06-26 06:00:00 19.4 10 Nordeste 15 Nordeste 0 -- -- 49
2019-06-26 05:00:00 19.9 9 Nordeste 15 Nordeste 0 -- -- 50
2019-06-26 04:00:00 18.6 2 Noroeste 9 Sudeste 0 -- -- 58
2019-06-26 03:00:00 20.5 3 Este 10 Nordeste 0 -- -- 54
2019-06-26 02:00:00 23 8 Nordeste 13 Este 0 -- -- 47
2019-06-26 01:00:00 23.5 9 Nordeste 13 Nordeste 0 -- -- 52
2019-06-26 00:00:00 24.3 3 Nordeste 10 Nordeste 0 -- -- 51
2019-06-25 23:00:00 27 7 Nordeste 19 Sudeste 0 -- -- 46
2019-06-25 22:00:00 29.5 3 Sudeste 18 Este 0 -- -- 41
2019-06-25 21:00:00 32.9 7 Nordeste 26 Este 0 -- -- 30
2019-06-25 20:00:00 34.5 12 Este 25 Este 0 -- -- 25
2019-06-25 19:00:00 35.7 9 Este 21 Sudeste 0 -- -- 27
2019-06-25 18:00:00 36 10 Sudeste 26 Este 0 -- -- 26
2019-06-25 17:00:00 36.1 9 Este 21 Este 0 -- -- 25
2019-06-25 16:00:00 35.5 6 Nordeste 21 Sudeste 0 -- -- 27
2019-06-25 15:00:00 34 7 Sudeste 21 Sudeste 0 -- -- 28
2019-06-25 14:00:00 33.4 8 Sur 21 Este 0 -- -- 28
2019-06-25 13:00:00 32 11 Nordeste 24 Nordeste 0 -- -- 29
2019-06-25 12:00:00 29.4 9 Oeste 17 Oeste 0 -- -- 35
2019-06-25 11:00:00 26.8 9 Oeste 15 Oeste 0 -- -- 34
2019-06-25 10:00:00 23.9 7 Oeste 11 Oeste 0 -- -- 45
2019-06-25 09:00:00 20.5 3 Nordeste 6 Nordeste 0 -- -- 55
2019-06-25 08:00:00 16.8 3 Nordeste 7 Este 0 -- -- 65
2019-06-25 07:00:00 14 4 Sudeste 6 Sudeste 0 -- -- 75
2019-06-25 06:00:00 15 3 Este 8 Este 0 -- -- 69
2019-06-25 05:00:00 15.4 6 Este 11 Nordeste 0 -- -- 67
2019-06-25 04:00:00 16.9 6 Este 12 Este 0 -- -- 61
2019-06-25 03:00:00 17.4 5 Nordeste 12 Nordeste 0 -- -- 59
2019-06-25 02:00:00 17.9 4 Este 10 Este 0 -- -- 55
2019-06-25 01:00:00 17.5 2 Este 7 Este 0 -- -- 55
2019-06-25 00:00:00 19.4 0 Calma 5 Este 0 -- -- 48
2019-06-24 23:00:00 23 2 Oeste 10 Este 0 -- -- 39
2019-06-24 22:00:00 26.3 7 Sudeste 22 Sudeste 0 -- -- 29
2019-06-24 21:00:00 28 8 Sudeste 18 Sudeste 0 -- -- 30
2019-06-24 20:00:00 30.4 10 Nordeste 26 Este 0 -- -- 28
2019-06-24 19:00:00 32.2 12 Este 28 Nordeste 0 -- -- 25
2019-06-24 18:00:00 32.5 14 Este 27 Nordeste 0 -- -- 22
2019-06-24 17:00:00 32.9 14 Este 31 Este 0 -- -- 21
2019-06-24 16:00:00 33 12 Sudeste 27 Norte 0 -- -- 20
2019-06-24 15:00:00 32.8 11 Sudeste 21 Este 0 -- -- 20
2019-06-24 14:00:00 31.5 13 Nordeste 27 Nordeste 0 -- -- 19
2019-06-24 13:00:00 31.7 11 Nordeste 26 Nordeste 0 -- -- 21
2019-06-24 12:00:00 29.8 12 Este 27 Nordeste 0 -- -- 26
2019-06-24 11:00:00 28.3 14 Este 26 Este 0 -- -- 32
2019-06-24 10:00:00 26.3 12 Nordeste 22 Este 0 -- -- 35
2019-06-24 09:00:00 22.3 8 Nordeste 15 Nordeste 0 -- -- 48
2019-06-24 08:00:00 18.6 6 Este 15 Nordeste 0 -- -- 56
2019-06-24 07:00:00 16.3 5 Este 9 Nordeste 0 -- -- 59
2019-06-24 06:00:00 17.1 6 Nordeste 12 Nordeste 0 -- -- 59
2019-06-24 05:00:00 17.3 8 Nordeste 15 Nordeste 0 -- -- 62
2019-06-24 04:00:00 17.6 4 Este 9 Nordeste 0 -- -- 63
2019-06-24 03:00:00 18.1 5 Sudeste 9 Este 0 -- -- 64
2019-06-24 02:00:00 19.9 4 Este 10 Sudeste 0 -- -- 57
2019-06-24 01:00:00 20.1 4 Nordeste 9 Nordeste 0 -- -- 59
2019-06-24 00:00:00 22.7 4 Este 10 Norte 0 -- -- 50
2019-06-23 23:00:00 25.6 5 Este 21 Sur 0 -- -- 39
2019-06-23 22:00:00 27.3 7 Este 35 Sudeste 0 -- -- 36
2019-06-23 21:00:00 29 18 Sudeste 30 Sur 0 -- -- 34
2019-06-23 20:00:00 31.7 7 Sudeste 15 Sudeste 0 -- -- 28
2019-06-23 19:00:00 32.3 5 Sudeste 14 Sudeste 0 -- -- 28
2019-06-23 18:00:00 33.1 9 Sudeste 25 Sur 0 -- -- 26
2019-06-23 17:00:00 33.5 11 Sur 20 Sur 0 -- -- 25
2019-06-23 16:00:00 31.5 7 Nordeste 17 Nordeste 0 -- -- 32
2019-06-23 15:00:00 31.2 8 Sudeste 21 Sudeste 0 -- -- 32
2019-06-23 14:00:00 30.4 8 Noroeste 15 Nordeste 0 -- -- 35
2019-06-23 13:00:00 29.2 6 Noroeste 15 Nordeste 0 -- -- 37
2019-06-23 12:00:00 28.2 7 Norte 15 Nordeste 0 -- -- 38
2019-06-23 11:00:00 25.8 7 Norte 15 Nordeste 0 -- -- 40
2019-06-23 10:00:00 21.9 4 Nordeste 9 Nordeste 0 -- -- 52
2019-06-23 09:00:00 16.8 4 Este 5 Este 0 -- -- 74
2019-06-23 08:00:00 15.5 2 Noroeste 8 Este 0 -- -- 76
2019-06-23 07:00:00 14.5 4 Este 9 Este 0 -- -- 76
2019-06-23 06:00:00 14.7 3 Este 6 Este 0 -- -- 75
2019-06-23 05:00:00 14.8 4 Este 8 Nordeste 0 -- -- 75
2019-06-23 04:00:00 16 7 Nordeste 12 Nordeste 0 -- -- 70
2019-06-23 03:00:00 15.7 3 Este 7 Nordeste 0 -- -- 74
2019-06-23 02:00:00 17.4 5 Nordeste 18 Este 0 -- -- 65
2019-06-23 01:00:00 18.2 7 Nordeste 13 Nordeste 0 -- -- 63
2019-06-23 00:00:00 19.5 5 Este 13 Nordeste 0 -- -- 58
2019-06-22 23:00:00 20 3 Este 13 Noroeste 0 -- -- 53
2019-06-22 22:00:00 21.1 4 Este 9 Sudeste 0 -- -- 50
2019-06-22 21:00:00 26.6 4 Sudoeste 8 Oeste 0 -- -- 37
2019-06-22 20:00:00 28.7 4 Oeste 14 Sur 0 -- -- 30
2019-06-22 19:00:00 28.9 9 Sudoeste 16 Sudoeste 0 -- -- 29
2019-06-22 18:00:00 28.7 9 Sudoeste 26 Sudoeste 0 -- -- 30
2019-06-22 17:00:00 28.4 9 Sudoeste 25 Oeste 0 -- -- 32
2019-06-22 16:00:00 27.8 8 Oeste 24 Sudoeste 0 -- -- 36
2019-06-22 15:00:00 27 13 Sudoeste 28 Sudoeste 0 -- -- 35
2019-06-22 14:00:00 25.6 9 Sudoeste 21 Sudoeste 0 -- -- 41
2019-06-22 13:00:00 24.9 11 Oeste 19 Oeste 0 -- -- 40
2019-06-22 12:00:00 23.9 10 Oeste 19 Sudoeste 0 -- -- 44
2019-06-22 11:00:00 22.4 8 Sudoeste 16 Oeste 0 -- -- 52
2019-06-22 10:00:00 19.4 2 Oeste 7 Norte 0 -- -- 63
2019-06-22 09:00:00 16.6 3 Norte 6 Nordeste 0 -- -- 78
2019-06-22 08:00:00 14.2 5 Nordeste 8 Nordeste 0 -- -- 85
2019-06-22 07:00:00 11.3 0 Calma 6 Nordeste 0 -- -- 94
2019-06-22 06:00:00 11.7 3 Nordeste 9 Este 0 -- -- 91
2019-06-22 05:00:00 11.7 4 Este 7 Nordeste 0 -- -- 94
2019-06-22 04:00:00 12.1 4 Sudeste 6 Este 0 -- -- 91
2019-06-22 03:00:00 12.6 0 Calma 8 Nordeste 0 -- -- 88
2019-06-22 02:00:00 13.7 3 Nordeste 11 Nordeste 0 -- -- 87
2019-06-22 01:00:00 14 2 Nordeste 13 Nordeste 0 -- -- 85
2019-06-22 00:00:00 14.7 6 Nordeste 14 Nordeste 0 -- -- 83
2019-06-21 23:00:00 15.1 10 Nordeste 15 Nordeste 0 -- -- 80
2019-06-21 22:00:00 16 9 Nordeste 23 Este 0 -- -- 74
2019-06-21 21:00:00 20.1 11 Nordeste 29 Norte 0 -- -- 50
2019-06-21 20:00:00 23.4 14 Sudoeste 28 Oeste 0 -- -- 50
2019-06-21 19:00:00 25.2 9 Sudoeste 22 Sudoeste 0 -- -- 47
2019-06-21 18:00:00 24.4 13 Sudoeste 25 Sur 0 -- -- 48
2019-06-21 17:00:00 24.7 16 Sudoeste 32 Sudoeste 0 -- -- 50
2019-06-21 16:00:00 24.8 14 Sur 24 Sudoeste 0 -- -- 51
2019-06-21 15:00:00 23.8 13 Sudoeste 24 Sudoeste 0 -- -- 54
2019-06-21 14:00:00 22.4 9 Sudoeste 19 Sudoeste 0 -- -- 61
2019-06-21 13:00:00 21.7 6 Oeste 16 Sudoeste 0 -- -- 63
2019-06-21 12:00:00 20.8 5 Oeste 12 Oeste 0 -- -- 69
2019-06-21 11:00:00 18.7 5 Oeste 9 Sudoeste 0 -- -- 76
2019-06-21 10:00:00 17.7 2 Norte 8 Oeste 0 -- -- 85
2019-06-21 09:00:00 16.7 3 Nordeste 6 Sur 0 -- -- 87
2019-06-21 08:00:00 15.3 3 Sur 7 Sudoeste 0 -- -- 94
2019-06-21 07:00:00 14.8 3 Norte 9 Este 0 -- -- 95
2019-06-21 06:00:00 14.6 3 Este 8 Sudoeste 0 -- -- 94
2019-06-21 05:00:00 14.6 4 Norte 9 Nordeste 0 -- -- 95
2019-06-21 04:00:00 14.8 6 Nordeste 10 Este 0 -- -- 94
2019-06-21 03:00:00 15.1 5 Nordeste 9 Nordeste 0 -- -- 94
2019-06-21 02:00:00 15.4 0 Calma 6 Noroeste 0 -- -- 93
2019-06-21 01:00:00 15.4 2 Sur 17 Nordeste 0 -- -- 91
2019-06-21 00:00:00 15.3 10 Nordeste 22 Nordeste 0 -- -- 90
2019-06-20 23:00:00 15.8 8 Nordeste 18 Este 0 -- -- 91
2019-06-20 22:00:00 17.1 6 Este 18 Este 0 -- -- 86
2019-06-20 21:00:00 16.7 8 Nordeste 18 Norte 0 -- -- 90
2019-06-20 20:00:00 16.4 6 Sudoeste 45 Sur 6.6 -- -- 88
2019-06-20 19:00:00 22.5 12 Sur 23 Sur 1.8 -- -- 64
2019-06-20 18:00:00 26.8 6 Sudoeste 25 Sur 0 -- -- 38
2019-06-20 17:00:00 27.6 8 Sur 26 Sur 0 -- -- 40
2019-06-20 16:00:00 27.7 8 Sudeste 23 Sur 0 -- -- 39
2019-06-20 15:00:00 27.4 6 Sur 21 Sur 0 -- -- 40
2019-06-20 14:00:00 27.3 10 Este 23 Sudeste 0 -- -- 40
2019-06-20 13:00:00 26.6 9 Este 21 Este 0 -- -- 43
2019-06-20 12:00:00 25.8 8 Sudeste 20 Nordeste 0 -- -- 44
2019-06-20 11:00:00 24.1 11 Sudeste 23 Sudeste 0 -- -- 52
2019-06-20 10:00:00 22.7 6 Sudoeste 13 Sudoeste 0 -- -- 52
2019-06-20 09:00:00 19 0 Calma 5 Noroeste 0 -- -- 58
2019-06-20 08:00:00 16.6 2 Norte 6 Nordeste 0 -- -- 67
2019-06-20 07:00:00 15.1 2 Nordeste 9 Sur 0 -- -- 73
2019-06-20 06:00:00 14.7 4 Norte 8 Oeste 0 -- -- 70
2019-06-20 05:00:00 15.5 2 Sur 13 Este 0 -- -- 65
2019-06-20 04:00:00 16.7 4 Nordeste 12 Nordeste 0 -- -- 59
2019-06-20 03:00:00 16.8 5 Sudeste 9 Sudeste 0 -- -- 59
2019-06-20 02:00:00 18.3 4 Este 8 Este 0 -- -- 53
2019-06-20 01:00:00 18.5 4 Nordeste 14 Este 0 -- -- 53
2019-06-20 00:00:00 19.3 9 Nordeste 15 Nordeste 0 -- -- 50
2019-06-19 23:00:00 20.9 6 Este 11 Nordeste 0 -- -- 45
2019-06-19 22:00:00 23.9 2 Norte 15 Sur 0 -- -- 38
2019-06-19 21:00:00 26.5 7 Sudoeste 15 Sudoeste 0 -- -- 31
2019-06-19 20:00:00 28.3 9 Sudoeste 21 Sudoeste 0 -- -- 28
2019-06-19 19:00:00 28.8 11 Sudoeste 22 Sudoeste 0 -- -- 27
2019-06-19 18:00:00 29 13 Sudoeste 33 Sudoeste 0 -- -- 28
2019-06-19 17:00:00 29.1 13 Sudoeste 27 Oeste 0 -- -- 27
2019-06-19 16:00:00 28.3 15 Sur 33 Sur 0 -- -- 28
2019-06-19 15:00:00 28.8 17 Sudoeste -- -- -- -- -- 29
2019-06-19 14:00:00 27.4 18 Sudoeste 31 Oeste 0 -- -- 30
2019-06-19 13:00:00 27.7 17 Oeste -- -- -- -- -- 28
2019-06-19 12:00:00 -- -- -- -- -- -- -- -- --
2019-06-19 11:00:00 -- -- -- -- -- -- -- -- --
2019-06-19 10:00:00 -- -- -- -- -- -- -- -- --
2019-06-19 09:00:00 -- -- -- -- -- -- -- -- --
2019-06-19 08:00:00 -- -- -- -- -- -- -- -- --
2019-06-19 07:00:00 -- -- -- -- -- -- -- -- --
2019-06-19 06:00:00 -- -- -- -- -- -- -- -- --
2019-06-19 05:00:00 -- -- -- -- -- -- -- -- --
2019-06-19 04:00:00 -- -- -- -- -- -- -- -- --
2019-06-19 03:00:00 -- -- -- -- -- -- -- -- --
2019-06-19 02:00:00 -- -- -- -- -- -- -- -- --
2019-06-19 01:00:00 -- -- -- -- -- -- -- -- --
2019-06-19 00:00:00 -- -- -- -- -- -- -- -- --
2019-06-18 23:00:00 -- -- -- -- -- -- -- -- --
2019-06-18 22:00:00 -- -- -- -- -- -- -- -- --
2019-06-18 21:00:00 -- -- -- -- -- -- -- -- --
2019-06-18 20:00:00 -- -- -- -- -- -- -- -- --
2019-06-18 19:00:00 30.5 14 Sudeste 32 Sur 0 -- -- 25
2019-06-18 18:00:00 31.4 10 Este 37 Este 0 -- -- 24
2019-06-18 17:00:00 32.3 12 Sudeste 32 Nordeste 0 -- -- 21
2019-06-18 16:00:00 31.7 11 Este 42 Sur 0 -- -- 22
2019-06-18 15:00:00 31.4 10 Sudeste 27 Este 0 -- -- 23
2019-06-18 14:00:00 31 8 Nordeste 21 Este 0 -- -- 24
2019-06-18 13:00:00 29.7 9 Nordeste 22 Nordeste 0 -- -- 28
2019-06-18 12:00:00 28 11 Nordeste 26 Nordeste 0 -- -- 29
2019-06-18 11:00:00 25.9 9 Este 22 Este 0 -- -- 34
2019-06-18 10:00:00 21.7 6 Nordeste 12 Nordeste 0 -- -- 51
2019-06-18 09:00:00 19.2 8 Sur 13 Sur 0 -- -- 57
2019-06-18 08:00:00 16.9 4 Nordeste 8 Este 0 -- -- 65
2019-06-18 07:00:00 14.6 6 Oeste 12 Oeste 0 -- -- 72
2019-06-18 06:00:00 16.4 4 Norte 13 Nordeste 0 -- -- 62
2019-06-18 05:00:00 16.2 5 Norte 14 Nordeste 0 -- -- 63
2019-06-18 04:00:00 16.1 7 Nordeste 11 Nordeste 0 -- -- 64
2019-06-18 03:00:00 16.2 3 Este 10 Este 0 -- -- 66
2019-06-18 02:00:00 17.1 6 Este 13 Nordeste 0 -- -- 63
2019-06-18 01:00:00 18.7 6 Nordeste 10 Este 0 -- -- 61
2019-06-18 00:00:00 21.7 3 Sudeste 21 Nordeste 0 -- -- 52
2019-06-17 23:00:00 22.7 14 Norte 37 Sudeste 0 -- -- 51
2019-06-17 22:00:00 24.5 23 Sudeste 40 Sur 0 -- -- 48
2019-06-17 21:00:00 26.8 5 Sudoeste 15 Sudoeste 0 -- -- 28
2019-06-17 20:00:00 29.6 8 Sudoeste 24 Sudoeste 0 -- -- 21
2019-06-17 19:00:00 30.6 10 Sudoeste 23 Sudoeste 0 -- -- 20
2019-06-17 18:00:00 30.9 13 Sudoeste 26 Oeste 0 -- -- 20
2019-06-17 17:00:00 31.1 12 Oeste 26 Oeste 0 -- -- 21
2019-06-17 16:00:00 30.3 10 Sur 50 Sudoeste 0 -- -- 20
2019-06-17 15:00:00 29.9 13 Sudoeste 31 Sur 0 -- -- 26
2019-06-17 14:00:00 29.2 10 Oeste 24 Sudoeste 0 -- -- 26
2019-06-17 13:00:00 28.1 10 Oeste 21 Sudoeste 0 -- -- 29
2019-06-17 12:00:00 26.8 6 Sudoeste 14 Oeste 0 -- -- 32
2019-06-17 11:00:00 24.5 5 Sudoeste 10 Oeste 0 -- -- 39
2019-06-17 10:00:00 22 4 Noroeste 9 Norte 0 -- -- 44
2019-06-17 09:00:00 18.4 2 Norte 6 Oeste 0 -- -- 54
2019-06-17 08:00:00 15.4 2 Nordeste 12 Nordeste 0 -- -- 63
2019-06-17 07:00:00 12.2 6 Nordeste 10 Nordeste 0 -- -- 73
2019-06-17 06:00:00 10.7 3 Este 9 Nordeste 0 -- -- 80
2019-06-17 05:00:00 12.8 7 Nordeste 11 Nordeste 0 -- -- 70
2019-06-17 04:00:00 12.5 4 Este 10 Este 0 -- -- 73
2019-06-17 03:00:00 13.2 3 Sudeste 10 Este 0 -- -- 70
2019-06-17 02:00:00 15.2 6 Nordeste 14 Nordeste 0 -- -- 62
2019-06-17 01:00:00 15.7 5 Sudeste 12 Nordeste 0 -- -- 59
2019-06-17 00:00:00 16.9 4 Este 10 Sudoeste 0 -- -- 56
2019-06-16 23:00:00 17.3 4 Sudoeste 10 Noroeste 0 -- -- 53
2019-06-16 22:00:00 19.6 3 Norte 12 Sur 0 -- -- 46
2019-06-16 21:00:00 23 5 Sur 6 Sudoeste 0 -- -- 41
2019-06-16 20:00:00 26.1 5 Sudoeste 16 Oeste 0 -- -- 28
2019-06-16 19:00:00 27.1 6 Sudoeste 18 Sudoeste 0 -- -- 26
2019-06-16 18:00:00 27.7 9 Sudoeste 22 Oeste 0 -- -- 24
2019-06-16 17:00:00 27.5 9 Oeste 21 Oeste 0 -- -- 26
2019-06-16 16:00:00 26.9 13 Sudoeste 27 Sudoeste 0 -- -- 28
2019-06-16 15:00:00 26.2 12 Sudoeste 24 Sudoeste 0 -- -- 29
2019-06-16 14:00:00 25.4 13 Sudoeste 31 Oeste 0 -- -- 29
2019-06-16 13:00:00 24.1 10 Oeste 25 Oeste 0 -- -- 35
2019-06-16 12:00:00 22 8 Oeste 16 Oeste 0 -- -- 39
2019-06-16 11:00:00 19.7 6 Oeste 13 Oeste 0 -- -- 53
2019-06-16 10:00:00 17.5 6 Oeste 12 Oeste 0 -- -- 60
2019-06-16 09:00:00 14.8 0 Calma 6 Nordeste 0 -- -- 58
2019-06-16 08:00:00 12 3 Nordeste 8 Este 0 -- -- 69
2019-06-16 07:00:00 8.3 5 Nordeste 9 Nordeste 0 -- -- 81
2019-06-16 06:00:00 9.5 4 Nordeste 10 Norte 0 -- -- 73
2019-06-16 05:00:00 9.4 4 Sudeste 8 Sudeste 0 -- -- 75
2019-06-16 04:00:00 10.7 3 Nordeste 9 Nordeste 0 -- -- 68
2019-06-16 03:00:00 10.4 4 Este 9 Nordeste 0 -- -- 68
2019-06-16 02:00:00 11.6 7 Este 12 Este 0 -- -- 63
2019-06-16 01:00:00 12.5 6 Sudeste 10 Este 0 -- -- 59
2019-06-16 00:00:00 15.1 4 Este 11 Nordeste 0 -- -- 50
2019-06-15 23:00:00 17.8 3 Nordeste 22 Sur 0 -- -- 41
2019-06-15 22:00:00 20.4 12 Sur 23 Sur 0 -- -- 34
2019-06-15 21:00:00 22.5 10 Sudoeste 30 Sudoeste 0 -- -- 28
2019-06-15 20:00:00 23.9 14 Sudoeste 31 Sudoeste 0 -- -- 28
2019-06-15 19:00:00 24.7 17 Sudoeste 35 Sudoeste 0 -- -- 30
2019-06-15 18:00:00 25.1 16 Sur 37 Sudoeste 0 -- -- 30
2019-06-15 17:00:00 25.4 16 Sudoeste 31 Oeste 0 -- -- 31
2019-06-15 16:00:00 25 16 Oeste 33 Oeste 0 -- -- 33
2019-06-15 15:00:00 24.8 14 Sudoeste 27 Sudoeste 0 -- -- 33
2019-06-15 14:00:00 23.3 13 Sudoeste 28 Sudoeste 0 -- -- 45
2019-06-15 13:00:00 22.2 15 Sudoeste 28 Sudoeste 0 -- -- 49
2019-06-15 12:00:00 21.4 18 Sudoeste 29 Oeste 0 -- -- 50
2019-06-15 11:00:00 19.9 16 Oeste 24 Oeste 0 -- -- 57
2019-06-15 10:00:00 18.7 6 Oeste 12 Oeste 0 -- -- 64
2019-06-15 09:00:00 15.7 6 Oeste 14 Sudoeste 0 -- -- 76
2019-06-15 08:00:00 13.6 0 Calma 7 Sur 0 -- -- 85
2019-06-15 07:00:00 12.6 5 Sudeste 7 Este 0 -- -- 85
2019-06-15 06:00:00 12.6 5 Nordeste 8 Nordeste 0 -- -- 85
2019-06-15 05:00:00 13.5 2 Sur 7 Sudeste 0 -- -- 79
2019-06-15 04:00:00 15.8 5 Sudeste 10 Nordeste 0 -- -- 72
2019-06-15 03:00:00 15.7 6 Este 23 Sudoeste 0 -- -- 73
2019-06-15 02:00:00 15 14 Sudoeste 27 Sudoeste 0 -- -- 73
2019-06-15 01:00:00 15.9 6 Nordeste 12 Nordeste 0 -- -- 68
2019-06-15 00:00:00 16.8 6 Este 11 Este 0 -- -- 66
2019-06-14 23:00:00 16.9 3 Sudoeste 9 Norte 0 -- -- 65
2019-06-14 22:00:00 18.6 3 Nordeste 8 Sur 0 -- -- 56
2019-06-14 21:00:00 24 4 Sur 8 Oeste 0 -- -- 44
2019-06-14 20:00:00 25.9 3 Oeste 17 Oeste 0 -- -- 36
2019-06-14 19:00:00 26 8 Sudoeste 23 Sudoeste 0 -- -- 37
2019-06-14 18:00:00 26 12 Sudoeste 22 Sudoeste 0 -- -- 38
2019-06-14 17:00:00 24.9 8 Oeste 18 Sudoeste 0 -- -- 42
2019-06-14 16:00:00 23.5 7 Sudoeste 30 Oeste 0 -- -- 43
2019-06-14 15:00:00 21.7 19 Sudoeste 31 Sudoeste 0 -- -- 48
2019-06-14 14:00:00 22.3 20 Sudoeste 35 Sudoeste 0 -- -- 45
2019-06-14 13:00:00 24.4 4 Este 19 Este 0 -- -- 41
2019-06-14 12:00:00 22.4 6 Sudeste 14 Nordeste 0 -- -- 45
2019-06-14 11:00:00 21.5 5 Este 14 Oeste 0 -- -- 45
2019-06-14 10:00:00 19.1 7 Sudoeste 12 Sudoeste 0 -- -- 48
2019-06-14 09:00:00 16.5 3 Este 9 Norte 0 -- -- 58
2019-06-14 08:00:00 13.4 4 Sudeste 18 Sudoeste 0 -- -- 70
2019-06-14 07:00:00 12.1 8 Sudoeste 12 Oeste 0 -- -- 72
2019-06-14 06:00:00 12 4 Nordeste 10 Este 0 -- -- 73
2019-06-14 05:00:00 12.4 0 Calma 9 Este 0 -- -- 70
2019-06-14 04:00:00 13.1 2 Sudeste 9 Nordeste 0 -- -- 67
2019-06-14 03:00:00 12.3 4 Sudeste 11 Nordeste 0 -- -- 67
2019-06-14 02:00:00 12.2 2 Sudeste 10 Nordeste 0 -- -- 67
2019-06-14 01:00:00 13.5 3 Nordeste 9 Nordeste 0 -- -- 60
2019-06-14 00:00:00 14.3 3 Nordeste 6 Sudeste 0 -- -- 57
2019-06-13 23:00:00 17.8 4 Este 14 Este 0 -- -- 46
2019-06-13 22:00:00 19.7 6 Sudeste 14 Sudeste 0 -- -- 43
2019-06-13 21:00:00 21.1 5 Este 28 Sudeste 0 -- -- 43
2019-06-13 20:00:00 21.8 15 Sudeste 33 Sudeste 0 -- -- 43
2019-06-13 19:00:00 23.4 13 Sudeste 29 Sudeste 0 -- -- 38
2019-06-13 18:00:00 26.1 10 Sudeste 24 Sudeste 0 -- -- 32
2019-06-13 17:00:00 25.7 8 Sudeste 23 Sudeste 0 -- -- 31
2019-06-13 16:00:00 24.9 8 Sudeste 21 Sur 0 -- -- 36
2019-06-13 15:00:00 23.8 8 Nordeste 21 Nordeste 0 -- -- 40
2019-06-13 14:00:00 23.1 7 Este 23 Norte 0 -- -- 39
2019-06-13 13:00:00 21.5 8 Nordeste 20 Nordeste 0 -- -- 45
2019-06-13 12:00:00 20.8 11 Nordeste 24 Este 0 -- -- 39
2019-06-13 11:00:00 19.2 12 Nordeste 23 Nordeste 0 -- -- 39
2019-06-13 10:00:00 16.8 10 Nordeste 24 Este 0 -- -- 43
2019-06-13 09:00:00 15.8 13 Nordeste 24 Nordeste 0 -- -- 47
2019-06-13 08:00:00 10.8 4 Nordeste 10 Nordeste 0 -- -- 67
2019-06-13 07:00:00 7.3 0 Calma 11 Nordeste 0 -- -- 78
2019-06-13 06:00:00 8 6 Nordeste 11 Nordeste 0 -- -- 74
2019-06-13 05:00:00 8.4 6 Este 10 Este 0 -- -- 71
2019-06-13 04:00:00 8.7 7 Nordeste 13 Nordeste 0 -- -- 68
2019-06-13 03:00:00 8.6 8 Nordeste 15 Nordeste 0 -- -- 69
2019-06-13 02:00:00 9.6 5 Este 10 Norte 0 -- -- 64
2019-06-13 01:00:00 11.2 6 Este 9 Este 0 -- -- 57
2019-06-13 00:00:00 12.3 5 Este 10 Este 0 -- -- 53
2019-06-12 23:00:00 14.6 5 Norte 21 Sudeste 0 -- -- 47
2019-06-12 22:00:00 15.7 7 Sur 18 Sudeste 0 -- -- 41
2019-06-12 21:00:00 19.8 4 Sur 6 Norte 0 -- -- 35
2019-06-12 20:00:00 21 0 Calma 18 Sur 0 -- -- 25
2019-06-12 19:00:00 20.9 7 Oeste 23 Sudoeste 0 -- -- 25
2019-06-12 18:00:00 20.6 14 Sudoeste 27 Oeste 0 -- -- 25
2019-06-12 17:00:00 20.4 11 Sudoeste 34 Sudoeste 0 -- -- 30
2019-06-12 16:00:00 19.6 10 Sur 30 Sur 0 -- -- 33
2019-06-12 15:00:00 19 15 Sudoeste 29 Sur 0 -- -- 33
2019-06-12 14:00:00 18 13 Sudoeste 28 Sudoeste 0 -- -- 36
2019-06-12 13:00:00 17 9 Oeste 26 Sudoeste 0 -- -- 37
2019-06-12 12:00:00 15.9 11 Sudoeste 23 Oeste 0 -- -- 39
2019-06-12 11:00:00 14.6 10 Oeste 21 Sudoeste 0 -- -- 49
2019-06-12 10:00:00 12.2 3 Oeste 9 Este 0 -- -- 70
2019-06-12 09:00:00 9.3 0 Calma 6 Norte 0 -- -- 78
2019-06-12 08:00:00 6.3 3 Norte 7 Sudeste 0 -- -- 89
2019-06-12 07:00:00 3.5 5 Este 8 Nordeste 0 -- -- 96
2019-06-12 06:00:00 3.7 3 Nordeste 6 Nordeste 0 -- -- 92
2019-06-12 05:00:00 4.3 4 Nordeste 10 Nordeste 0 -- -- 92
2019-06-12 04:00:00 5.2 4 Este 11 Este 0 -- -- 90
2019-06-12 03:00:00 5.1 4 Nordeste 10 Nordeste 0 -- -- 93
2019-06-12 02:00:00 5.8 5 Este 9 Nordeste 0 -- -- 92
2019-06-12 01:00:00 6.6 7 Este 12 Nordeste 0 -- -- 90
2019-06-12 00:00:00 7.6 4 Nordeste 11 Nordeste 0 -- -- 88
2019-06-11 23:00:00 8.8 8 Nordeste 15 Este 0 -- -- 84
2019-06-11 22:00:00 10.5 8 Nordeste 14 Este 0 -- -- 76
2019-06-11 21:00:00 12.7 6 Este 15 Nordeste 0 -- -- 72
2019-06-11 20:00:00 13.5 6 Norte 15 Nordeste 0.4 -- -- 77
2019-06-11 19:00:00 15.5 6 Norte 11 Norte 0 -- -- 58
2019-06-11 18:00:00 14.5 5 Nordeste 13 Sudoeste 0.2 -- -- 71
2019-06-11 17:00:00 13.7 7 Noroeste 32 Sudoeste 0 -- -- 56
2019-06-11 16:00:00 15.6 11 Sudoeste 23 Sur 0 -- -- 57
2019-06-11 15:00:00 14.1 10 Sudoeste 19 Sudoeste 0 -- -- 67
2019-06-11 14:00:00 12.6 12 Sudoeste 19 Sudoeste 0 -- -- 79
2019-06-11 13:00:00 12.6 12 Oeste 17 Oeste 0 -- -- 74
2019-06-11 12:00:00 11.4 8 Oeste 16 Oeste 0 -- -- 89
2019-06-11 11:00:00 11.1 7 Sudoeste 12 Sudoeste 0 -- -- 91
2019-06-11 10:00:00 10.6 3 Oeste 6 Sudoeste 0 -- -- 92
2019-06-11 09:00:00 10.4 3 Sudoeste 7 Sudoeste 0.2 -- -- 94
2019-06-11 08:00:00 10.1 0 Calma 4 Sudeste 0 -- -- 92
2019-06-11 07:00:00 10 2 Noroeste 7 Norte 0.2 -- -- 90
2019-06-11 06:00:00 10.1 3 Este 6 Norte 0 -- -- 91
2019-06-11 05:00:00 10.3 3 Nordeste 23 Nordeste 0.2 -- -- 89
2019-06-11 04:00:00 10.6 11 Nordeste 23 Este 0.4 -- -- 83
2019-06-11 03:00:00 11.5 3 Este 17 Oeste 0.4 -- -- 77
2019-06-11 02:00:00 13.7 14 Sur 26 Sur 0 -- -- 56
2019-06-11 01:00:00 14.1 8 Noroeste 24 Oeste 0 -- -- 51
2019-06-11 00:00:00 13.9 6 Sudoeste 20 Sudoeste 0 -- -- 50
2019-06-10 23:00:00 14 10 Sur 14 Sur 0 -- -- 49
2019-06-10 22:00:00 16.9 4 Sudoeste 13 Sudoeste 0 -- -- 43
2019-06-10 21:00:00 19.4 7 Sudoeste 25 Sudoeste 0 -- -- 33
2019-06-10 20:00:00 20.7 12 Sur 33 Sur 0 -- -- 19
2019-06-10 19:00:00 21.7 17 Sudoeste 35 Sur 0 -- -- 22
2019-06-10 18:00:00 23.7 22 Sudoeste 38 Sur 0 -- -- 28
2019-06-10 17:00:00 24.5 21 Sudoeste 35 Sur 0 -- -- 31
2019-06-10 16:00:00 23.9 14 Sur 30 Sudoeste 0 -- -- 36
2019-06-10 15:00:00 23 12 Sudoeste 30 Sudoeste 0 -- -- 41
2019-06-10 14:00:00 22 19 Sudoeste 35 Sudoeste 0 -- -- 46
2019-06-10 13:00:00 21.8 20 Sudoeste 32 Sudoeste 0 -- -- 48
2019-06-10 12:00:00 21.2 17 Oeste 26 Oeste 0 -- -- 50
2019-06-10 11:00:00 20.4 14 Oeste 22 Sudoeste 0 -- -- 47
2019-06-10 10:00:00 18.4 9 Oeste 17 Sudoeste 0 -- -- 56
2019-06-10 09:00:00 16.7 3 Noroeste 9 Oeste 0 -- -- 59
2019-06-10 08:00:00 12.9 0 Calma 6 Sudeste 0 -- -- 78
2019-06-10 07:00:00 11.9 7 Sudeste 10 Sudeste 0 -- -- 76
2019-06-10 06:00:00 12.1 0 Calma 8 Nordeste 0 -- -- 72
2019-06-10 05:00:00 11.7 4 Nordeste 8 Nordeste 0 -- -- 71
2019-06-10 04:00:00 13.3 3 Este 6 Sudeste 0 -- -- 69
2019-06-10 03:00:00 13.8 3 Sudeste 15 Nordeste 0 -- -- 66
2019-06-10 02:00:00 14.6 5 Nordeste 13 Nordeste 0 -- -- 58
2019-06-10 01:00:00 15.8 4 Este 10 Sur 0 -- -- 62
2019-06-10 00:00:00 17.8 4 Oeste 10 Sur 0 -- -- 54
2019-06-09 23:00:00 18.2 4 Norte 11 Noroeste 0 -- -- 54
2019-06-09 22:00:00 19.9 0 Calma 7 Sur 0 -- -- 54
2019-06-09 21:00:00 24.9 3 Sur 14 Sudoeste 0 -- -- 41
2019-06-09 20:00:00 26.1 11 Oeste 19 Oeste 0 -- -- 31
2019-06-09 19:00:00 25.6 10 Sudoeste 22 Oeste 0 -- -- 32
2019-06-09 18:00:00 27 14 Sudoeste 26 Oeste 0 -- -- 29
2019-06-09 17:00:00 26.6 12 Oeste 27 Oeste 0 -- -- 28
2019-06-09 16:00:00 26.6 15 Oeste 26 Oeste 0 -- -- 29
2019-06-09 15:00:00 26.5 12 Oeste 28 Oeste 0 -- -- 29
2019-06-09 14:00:00 26.3 10 Oeste 28 Oeste 0 -- -- 32
2019-06-09 13:00:00 25.4 9 Nordeste 18 Nordeste 0 -- -- 31
2019-06-09 12:00:00 23.5 6 Noroeste 12 Oeste 0 -- -- 41
2019-06-09 11:00:00 20.5 4 Oeste 10 Oeste 0 -- -- 59
2019-06-09 10:00:00 17.5 4 Noroeste 7 Norte 0 -- -- 77
2019-06-09 09:00:00 15.2 2 Nordeste 8 Oeste 0 -- -- 85
2019-06-09 08:00:00 13.4 3 Sudeste 8 Nordeste 0 -- -- 91
2019-06-09 07:00:00 12.9 3 Norte 12 Sur -- -- -- 92
2019-06-09 06:00:00 13.3 6 Noroeste 11 Noroeste 0.2 -- -- 90
2019-06-09 05:00:00 13.5 3 Norte 18 Este 0.2 -- -- 85
2019-06-09 04:00:00 14.3 11 Sudoeste 18 Nordeste 0.4 -- -- 79
2019-06-09 03:00:00 15.1 8 Nordeste 16 Nordeste 0 -- -- 70
2019-06-09 02:00:00 15.8 8 Nordeste 18 Nordeste 0 -- -- 62
2019-06-09 01:00:00 15 5 Sur 8 Sur 0 -- -- 72
2019-06-09 00:00:00 15.9 7 Nordeste 17 Nordeste 0 -- -- 70
2019-06-08 23:00:00 17.6 4 Sudeste 18 Sur 0 -- -- 55
2019-06-08 22:00:00 18.2 5 Sudoeste 11 Sudoeste 0 -- -- 52
2019-06-08 21:00:00 20.1 6 Sudoeste 20 Sudeste 0 -- -- 44
2019-06-08 20:00:00 22.1 12 Sur 26 Sur 0 -- -- 42
2019-06-08 19:00:00 23.6 9 Sudeste 25 Sudeste 0 -- -- 38
2019-06-08 18:00:00 24.7 11 Sudeste 24 Sudeste 0 -- -- 34
2019-06-08 17:00:00 23.8 10 Sur 23 Sur 0 -- -- 38
2019-06-08 16:00:00 25.5 8 Sur 18 Oeste 0 -- -- 31
2019-06-08 15:00:00 24.3 9 Oeste 17 Sudoeste 0 -- -- 30
2019-06-08 14:00:00 22.9 6 Noroeste 16 Nordeste 0 -- -- 32
2019-06-08 13:00:00 21.5 6 Noroeste 15 Oeste 0 -- -- 34
2019-06-08 12:00:00 20.5 5 Oeste 13 Sudoeste 0 -- -- 36
2019-06-08 11:00:00 18.2 7 Oeste 12 Oeste 0 -- -- 44
2019-06-08 10:00:00 16.2 3 Norte 8 Oeste 0 -- -- 44
2019-06-08 09:00:00 12.4 4 Noroeste 7 Oeste 0 -- -- 55
2019-06-08 08:00:00 9.5 2 Sudeste 9 Este 0 -- -- 66
2019-06-08 07:00:00 5.9 4 Este 12 Este 0 -- -- 75
2019-06-08 06:00:00 6.1 3 Sudeste 10 Este 0 -- -- 74
2019-06-08 05:00:00 5.2 5 Este 12 Nordeste 0 -- -- 78
2019-06-08 04:00:00 6.6 4 Este 11 Este 0 -- -- 70
2019-06-08 03:00:00 6.9 0 Calma 8 Nordeste 0 -- -- 72
2019-06-08 02:00:00 7.6 4 Este 12 Nordeste 0 -- -- 69
2019-06-08 01:00:00 9.5 9 Este 15 Este 0 -- -- 58
2019-06-08 00:00:00 10.1 5 Este 11 Nordeste 0 -- -- 56
2019-06-07 23:00:00 12.4 4 Sur 14 Sur 0 -- -- 53
2019-06-07 22:00:00 14.1 7 Sudoeste 13 Oeste 0 -- -- 46
2019-06-07 21:00:00 18.2 10 Sudoeste 26 Oeste 0 -- -- 32
2019-06-07 20:00:00 20.3 16 Oeste 27 Sudoeste 0 -- -- 30
2019-06-07 19:00:00 21.5 14 Oeste 28 Oeste 0 -- -- 29
2019-06-07 18:00:00 21.5 14 Sudoeste 33 Sur 0 -- -- 35
2019-06-07 17:00:00 21.3 18 Sudoeste 29 Oeste 0 -- -- 35
2019-06-07 16:00:00 21.3 12 Oeste 24 Sudoeste 0 -- -- 31
2019-06-07 15:00:00 20.2 17 Sudoeste 32 Oeste 0 -- -- 27
2019-06-07 14:00:00 19.2 13 Sudoeste 31 Sudoeste 0 -- -- 41
2019-06-07 13:00:00 18 12 Oeste 24 Sudoeste 0 -- -- 49
2019-06-07 12:00:00 16 4 Sur 15 Sur 0 -- -- 57
2019-06-07 11:00:00 13.5 8 Sur 21 Sudoeste 0.2 -- -- 79
2019-06-07 10:00:00 12.4 13 Sudoeste 27 Este 3 -- -- 88
2019-06-07 09:00:00 15.8 16 Nordeste 27 Nordeste 0 -- -- 65
2019-06-07 08:00:00 11.8 5 Nordeste 16 Nordeste 0 -- -- 81
2019-06-07 07:00:00 9.1 4 Nordeste 11 Nordeste 0 -- -- 84
2019-06-07 06:00:00 9 4 Nordeste 8 Nordeste 0 -- -- 82
2019-06-07 05:00:00 10.3 6 Nordeste 10 Este 0 -- -- 75
2019-06-07 04:00:00 11.2 6 Nordeste 9 Nordeste 0 -- -- 71
2019-06-07 03:00:00 12.9 3 Norte 11 Nordeste 0 -- -- 64
2019-06-07 02:00:00 13.8 7 Este 13 Este 0 -- -- 58
2019-06-07 01:00:00 14.3 6 Este 12 Este 0 -- -- 61
2019-06-07 00:00:00 13.9 6 Nordeste 19 Nordeste 0 -- -- 61
2019-06-06 23:00:00 14.5 12 Nordeste 18 Nordeste 0 -- -- 58
2019-06-06 22:00:00 16.5 10 Nordeste 20 Nordeste 0 -- -- 53
2019-06-06 21:00:00 18.1 9 Nordeste 26 Este 0 -- -- 50
2019-06-06 20:00:00 18.4 8 Este 27 Este 0 -- -- 51
2019-06-06 19:00:00 19.7 11 Sudeste 31 Este 0 -- -- 47
2019-06-06 18:00:00 20.9 17 Sudeste 36 Sudeste 0 -- -- 45
2019-06-06 17:00:00 22.4 13 Sudeste 35 Sudeste 0 -- -- 38
2019-06-06 16:00:00 22.5 9 Sudeste 28 Sur 0 -- -- 31
2019-06-06 15:00:00 22 7 Nordeste 32 Sur 0 -- -- 36
2019-06-06 14:00:00 20.7 9 Sur 31 Sur 0 -- -- 37
2019-06-06 13:00:00 20.5 11 Sudoeste 26 Sur 0 -- -- 38
2019-06-06 12:00:00 18.8 9 Sudeste 22 Sudeste 0 -- -- 45
2019-06-06 11:00:00 17.3 5 Noroeste 12 Noroeste 0 -- -- 46
2019-06-06 10:00:00 15.2 4 Noroeste 9 Sudoeste 0 -- -- 58
2019-06-06 09:00:00 11.9 3 Noroeste 8 Norte 0 -- -- 73
2019-06-06 08:00:00 9.2 3 Este 8 Norte 0 -- -- 81
2019-06-06 07:00:00 6.5 2 Este 8 Nordeste 0 -- -- 91
2019-06-06 06:00:00 6.6 4 Nordeste 10 Este 0 -- -- 89
2019-06-06 05:00:00 6.5 0 Calma 8 Este 0 -- -- 89
2019-06-06 04:00:00 7.5 3 Sur 9 Este 0 -- -- 86
2019-06-06 03:00:00 7.5 6 Nordeste 10 Nordeste 0 -- -- 89
2019-06-06 02:00:00 8.1 3 Este 10 Nordeste 0 -- -- 85
2019-06-06 01:00:00 9.4 3 Sudeste 8 Nordeste 0 -- -- 81
2019-06-06 00:00:00 10.5 5 Sudoeste 13 Sur 0 -- -- 76
2019-06-05 23:00:00 12.4 10 Sudoeste 17 Sudoeste 0 -- -- 66
2019-06-05 22:00:00 13.7 10 Sudoeste 22 Sur 0 -- -- 62
2019-06-05 21:00:00 16 10 Sudoeste 26 Sudoeste 0 -- -- 55
2019-06-05 20:00:00 18.4 14 Oeste 22 Oeste 0 -- -- 49
2019-06-05 19:00:00 19.1 13 Sudoeste 22 Oeste 0 -- -- 43
2019-06-05 18:00:00 19.1 10 Sudoeste 22 Noroeste 0 -- -- 48
2019-06-05 17:00:00 18.2 11 Oeste 30 Oeste 0 -- -- 48
2019-06-05 16:00:00 18.8 18 Sudoeste 36 Sudoeste 0 -- -- 56
2019-06-05 15:00:00 16.2 3 Sur 10 Sudoeste 0 -- -- 72
2019-06-05 14:00:00 15.5 4 Sudoeste 17 Oeste 0 -- -- 78
2019-06-05 13:00:00 13.4 4 Sudoeste 29 Oeste 0 -- -- 92
2019-06-05 12:00:00 13.3 17 Sudoeste 31 Sur 1.6 -- -- 88
2019-06-05 11:00:00 15.7 19 Sudeste 36 Sudeste 1.6 -- -- 76
2019-06-05 10:00:00 18.6 8 Sudeste 21 Sudeste 0 -- -- 58
2019-06-05 09:00:00 16.7 9 Sudoeste 19 Oeste 0 -- -- 62
2019-06-05 08:00:00 16.8 8 Sudeste 29 Sudeste 0 -- -- 52
2019-06-05 07:00:00 13.5 3 Noroeste 7 Oeste 0 -- -- 56
2019-06-05 06:00:00 13.8 3 Sudoeste 6 Nordeste 0 -- -- 52
2019-06-05 05:00:00 15.8 4 Nordeste 13 Este 0 -- -- 44
2019-06-05 04:00:00 18.4 8 Este 18 Este 0 -- -- 32
2019-06-05 03:00:00 18.5 8 Este 19 Este 0 -- -- 32
2019-06-05 02:00:00 19.1 13 Este 21 Este 0 -- -- 32
2019-06-05 01:00:00 19.5 11 Este 22 Este 0 -- -- 35
2019-06-05 00:00:00 20.3 12 Este 27 Este 0 -- -- 36
2019-06-04 23:00:00 20.8 11 Nordeste 18 Nordeste 0 -- -- 41
2019-06-04 22:00:00 22.2 5 Este 15 Este 0 -- -- 35
2019-06-04 21:00:00 24.5 9 Este 23 Sudeste 0 -- -- 33
2019-06-04 20:00:00 26.5 11 Este 31 Este 0 -- -- 31
2019-06-04 19:00:00 27.9 15 Sudeste 31 Sudeste 0 -- -- 28
2019-06-04 18:00:00 30.1 12 Este 26 Sudeste 0 -- -- 27
2019-06-04 17:00:00 30.7 12 Este 26 Sudeste 0 -- -- 22
2019-06-04 16:00:00 30.1 5 Sudeste 20 Sur 0 -- -- 23
2019-06-04 15:00:00 29.5 9 Sur 20 Sur 0 -- -- 24
2019-06-04 14:00:00 28.7 6 Sudeste 18 Sur 0 -- -- 25
2019-06-04 13:00:00 27.6 7 Sudeste 15 Norte 0 -- -- 28
2019-06-04 12:00:00 26 5 Norte 12 Oeste 0 -- -- 32
2019-06-04 11:00:00 23.1 8 Sudoeste 13 Oeste 0 -- -- 44
2019-06-04 10:00:00 19.9 11 Sudoeste 14 Sudoeste 0 -- -- 53
2019-06-04 09:00:00 17.3 3 Oeste 6 Oeste 0 -- -- 61
2019-06-04 08:00:00 15 2 Sur 8 Este 0 -- -- 69
2019-06-04 07:00:00 13 4 Sudeste 12 Nordeste 0 -- -- 73
2019-06-04 06:00:00 13.3 5 Nordeste 8 Este 0 -- -- 72
2019-06-04 05:00:00 14.3 5 Sudeste 10 Este 0 -- -- 68
2019-06-04 04:00:00 14.5 6 Este 9 Este 0 -- -- 67
2019-06-04 03:00:00 14.8 6 Nordeste 12 Este 0 -- -- 66
2019-06-04 02:00:00 15.5 6 Este 10 Este 0 -- -- 63
2019-06-04 01:00:00 15.5 0 Calma 9 Nordeste 0 -- -- 63
2019-06-04 00:00:00 17.1 0 Calma 13 Nordeste 0 -- -- 56
2019-06-03 23:00:00 19.4 4 Este 11 Nordeste 0 -- -- 51
2019-06-03 22:00:00 22.8 8 Nordeste 27 Sudeste 0 -- -- 38
2019-06-03 21:00:00 25.2 9 Sudeste 30 Sudeste 0 -- -- 34
2019-06-03 20:00:00 27 15 Sudeste 33 Sudeste 0 -- -- 32
2019-06-03 19:00:00 29.1 12 Sudeste 27 Sudeste 0 -- -- 29
2019-06-03 18:00:00 30.2 10 Sudeste 22 Sudeste 0 -- -- 26
2019-06-03 17:00:00 30.3 10 Sudeste 21 Este 0 -- -- 24
2019-06-03 16:00:00 30.3 7 Sur 21 Sur 0 -- -- 25
2019-06-03 15:00:00 29.3 5 Oeste 28 Sudoeste 0 -- -- 28
2019-06-03 14:00:00 28.7 7 Sudoeste 15 Sudeste 0 -- -- 31
2019-06-03 13:00:00 26.9 6 Noroeste 14 Norte 0 -- -- 37
2019-06-03 12:00:00 25.1 3 Sur 17 Oeste 0 -- -- 38
2019-06-03 11:00:00 23.5 7 Sudoeste 12 Oeste 0 -- -- 46
2019-06-03 10:00:00 21.5 4 Noroeste 8 Oeste 0 -- -- 53
2019-06-03 09:00:00 20.3 4 Oeste 9 Sudoeste 0 -- -- 54
2019-06-03 08:00:00 17.3 8 Sudoeste 12 Oeste 0 -- -- 61
2019-06-03 07:00:00 17.7 4 Nordeste 13 Sudeste 0 -- -- 60
2019-06-03 06:00:00 18 9 Este 26 Este 0 -- -- 55
2019-06-03 05:00:00 15.7 4 Nordeste 12 Este 0 -- -- 65
2019-06-03 04:00:00 15.3 5 Sudeste 10 Nordeste 0 -- -- 66
2019-06-03 03:00:00 15.2 7 Nordeste 10 Nordeste 0 -- -- 67
2019-06-03 02:00:00 16.5 4 Sudeste 9 Este 0 -- -- 65
2019-06-03 01:00:00 16.6 3 Nordeste 7 Sudeste 0 -- -- 64
2019-06-03 00:00:00 17.9 0 Calma 11 Este 0 -- -- 58
2019-06-02 23:00:00 20.8 5 Norte 21 Sudeste 0 -- -- 49
2019-06-02 22:00:00 22.4 6 Oeste 18 Sudeste 0 -- -- 44
2019-06-02 21:00:00 26.3 10 Sudeste 22 Sudeste 0 -- -- 34
2019-06-02 20:00:00 29.3 9 Sur 22 Sudoeste 0 -- -- 28
2019-06-02 19:00:00 30.3 12 Sudoeste 28 Oeste 0 -- -- 25
2019-06-02 18:00:00 30.9 15 Oeste 25 Oeste 0 -- -- 25
2019-06-02 17:00:00 31 13 Sudoeste 23 Sudoeste 0 -- -- 25
2019-06-02 16:00:00 30.4 11 Sudoeste 25 Sudoeste 0 -- -- 25
2019-06-02 15:00:00 29.9 13 Sudoeste 25 Sudoeste 0 -- -- 26
2019-06-02 14:00:00 29.5 13 Sudoeste 26 Oeste 0 -- -- 29
2019-06-02 13:00:00 28.1 10 Oeste 22 Oeste 0 -- -- 31
2019-06-02 12:00:00 26.6 9 Oeste 20 Oeste 0 -- -- 35
2019-06-02 11:00:00 24.2 5 Sudoeste 9 Sudoeste 0 -- -- 41
2019-06-02 10:00:00 21 0 Calma 5 Noroeste 0 -- -- 53
2019-06-02 09:00:00 17.4 2 Noroeste 8 Nordeste 0 -- -- 67
2019-06-02 08:00:00 14.2 2 Este 6 Nordeste 0 -- -- 74
2019-06-02 07:00:00 10.4 3 Sudeste 6 Este 0 -- -- 90
2019-06-02 06:00:00 10.8 2 Este 9 Nordeste 0 -- -- 84
2019-06-02 05:00:00 12.7 5 Nordeste 10 Nordeste 0 -- -- 79
2019-06-02 04:00:00 12.7 6 Este 11 Este 0 -- -- 79
2019-06-02 03:00:00 14.1 4 Este 9 Nordeste 0 -- -- 74
2019-06-02 02:00:00 15.1 6 Nordeste 10 Nordeste 0 -- -- 71
2019-06-02 01:00:00 16.4 3 Este 8 Este 0 -- -- 66
2019-06-02 00:00:00 17.9 4 Sur 12 Sudeste 0 -- -- 61
2019-06-01 23:00:00 19.3 3 Noroeste 9 Sudoeste 0 -- -- 56
2019-06-01 22:00:00 21.5 2 Norte 9 Sur 0 -- -- 50
2019-06-01 21:00:00 25.4 7 Sur 13 Sur 0 -- -- 36
2019-06-01 20:00:00 27.8 8 Sudoeste 17 Sudoeste 0 -- -- 33
2019-06-01 19:00:00 28.9 6 Sur 23 Oeste 0 -- -- 29
2019-06-01 18:00:00 29 13 Sudoeste 23 Oeste 0 -- -- 29
2019-06-01 17:00:00 29 13 Sudoeste 24 Oeste 0 -- -- 28
2019-06-01 16:00:00 28.5 11 Oeste 26 Sudoeste 0 -- -- 28
2019-06-01 15:00:00 27.8 7 Sudoeste 28 Oeste 0 -- -- 34
2019-06-01 14:00:00 27 8 Oeste 19 Sudoeste 0 -- -- 34
2019-06-01 13:00:00 26.1 9 Noroeste 15 Noroeste 0 -- -- 36
2019-06-01 12:00:00 24.7 8 Oeste 13 Oeste 0 -- -- 39
2019-06-01 11:00:00 23.1 5 Oeste 11 Oeste 0 -- -- 45
2019-06-01 10:00:00 21.1 2 Nordeste 7 Nordeste 0 -- -- 54
2019-06-01 09:00:00 17.6 2 Norte 7 Nordeste 0 -- -- 65
2019-06-01 08:00:00 14.3 4 Nordeste 9 Nordeste 0 -- -- 75
2019-06-01 07:00:00 11.1 4 Nordeste 8 Nordeste 0 -- -- 86
2019-06-01 06:00:00 10.9 3 Este 9 Este 0 -- -- 86
2019-06-01 05:00:00 11.3 3 Nordeste 9 Este 0 -- -- 84
2019-06-01 04:00:00 12.4 4 Este 9 Nordeste 0 -- -- 80
2019-06-01 03:00:00 12.2 5 Nordeste 10 Nordeste 0 -- -- 83
2019-06-01 02:00:00 13.4 3 Este 9 Este 0 -- -- 77
2019-06-01 01:00:00 14.6 4 Este 9 Nordeste 0 -- -- 72
2019-06-01 00:00:00 15.1 5 Nordeste 8 Nordeste 0 -- -- 70
2019-05-31 23:00:00 17 4 Sudoeste 9 Noroeste 0 -- -- 62
2019-05-31 22:00:00 19.5 3 Este 8 Sur 0 -- -- 48
2019-05-31 21:00:00 23.8 7 Sur 16 Sudoeste 0 -- -- 37
2019-05-31 20:00:00 25.8 10 Sudoeste 24 Oeste 0 -- -- 34
2019-05-31 19:00:00 27 12 Oeste 20 Sudoeste 0 -- -- 36
2019-05-31 18:00:00 27.5 8 Sudoeste 25 Sudoeste 0 -- -- 31
2019-05-31 17:00:00 27.1 13 Oeste 28 Sudoeste 0 -- -- 34
2019-05-31 16:00:00 26.8 13 Sudoeste 28 Oeste 0 -- -- 34
2019-05-31 15:00:00 26 14 Oeste 27 Oeste 0 -- -- 38
2019-05-31 14:00:00 25.4 13 Oeste 24 Sudoeste 0 -- -- 39
2019-05-31 13:00:00 24 8 Noroeste 15 Noroeste 0 -- -- 43
2019-05-31 12:00:00 22.9 6 Noroeste 14 Oeste 0 -- -- 43
2019-05-31 11:00:00 21.1 6 Oeste 13 Oeste 0 -- -- 46
2019-05-31 10:00:00 18.5 3 Noroeste 7 Oeste 0 -- -- 54
2019-05-31 09:00:00 15.5 3 Norte 8 Este 0 -- -- 60
2019-05-31 08:00:00 12.3 3 Nordeste 8 Este 0 -- -- 69
2019-05-31 07:00:00 9.6 3 Nordeste 9 Este 0 -- -- 77
2019-05-31 06:00:00 9.5 8 Nordeste 12 Nordeste 0 -- -- 80
2019-05-31 05:00:00 10.4 6 Este 10 Este 0 -- -- 77
2019-05-31 04:00:00 11 6 Sudeste 10 Este 0 -- -- 74
2019-05-31 03:00:00 11.1 5 Este 9 Este 0 -- -- 76
2019-05-31 02:00:00 13 5 Este 8 Nordeste 0 -- -- 68
2019-05-31 01:00:00 13.2 4 Este 9 Nordeste 0 -- -- 69
2019-05-31 00:00:00 14.3 4 Este 12 Nordeste 0 -- -- 67
2019-05-30 23:00:00 15.5 4 Nordeste 10 Nordeste 0 -- -- 64
2019-05-30 22:00:00 17.4 2 Este 8 Sudoeste 0 -- -- 59
2019-05-30 21:00:00 23 4 Sur 14 Sudoeste 0 -- -- 40
2019-05-30 20:00:00 24.8 10 Sudoeste 19 Oeste 0 -- -- 37
2019-05-30 19:00:00 25.4 12 Sudoeste 25 Sudoeste 0 -- -- 35
2019-05-30 18:00:00 25.9 13 Sudoeste 28 Oeste 0 -- -- 35
2019-05-30 17:00:00 25.6 13 Sudoeste 23 Sudoeste 0 -- -- 34
2019-05-30 16:00:00 25 14 Sudoeste 24 Sudoeste 0 -- -- 33
2019-05-30 15:00:00 24.1 13 Sudoeste 22 Sudoeste 0 -- -- 36
2019-05-30 14:00:00 23.3 11 Oeste 22 Oeste 0 -- -- 36
2019-05-30 13:00:00 22.3 11 Sudoeste 23 Oeste 0 -- -- 38
2019-05-30 12:00:00 20.2 10 Sudoeste 21 Sudoeste 0 -- -- 41
2019-05-30 11:00:00 18.5 9 Oeste 16 Oeste 0 -- -- 46
2019-05-30 10:00:00 15.9 5 Oeste 9 Oeste 0 -- -- 52
2019-05-30 09:00:00 13.2 2 Sudoeste 5 Norte 0 -- -- 56
2019-05-30 08:00:00 9.9 3 Nordeste 7 Nordeste 0 -- -- 70
2019-05-30 07:00:00 6.6 4 Este 7 Nordeste 0 -- -- 81
2019-05-30 06:00:00 7.2 4 Este 10 Nordeste 0 -- -- 77
2019-05-30 05:00:00 7.1 2 Oeste 10 Nordeste 0 -- -- 78
2019-05-30 04:00:00 7.4 5 Nordeste 8 Nordeste 0 -- -- 76
2019-05-30 03:00:00 8.4 0 Calma 11 Este 0 -- -- 72
2019-05-30 02:00:00 9.8 8 Nordeste 12 Nordeste 0 -- -- 63
2019-05-30 01:00:00 11.3 6 Nordeste 14 Este 0 -- -- 57
2019-05-30 00:00:00 14.4 7 Este 15 Este 0 -- -- 45
2019-05-29 23:00:00 14.2 9 Nordeste 23 Este 0 -- -- 45
2019-05-29 22:00:00 16.7 12 Este 21 Nordeste 0 -- -- 38
2019-05-29 21:00:00 19.4 5 Este 26 Norte 0 -- -- 35
2019-05-29 20:00:00 21.4 14 Norte 28 Este 0 -- -- 29
2019-05-29 19:00:00 22.9 12 Este 27 Este 0 -- -- 28
2019-05-29 18:00:00 24 11 Nordeste 20 Este 0 -- -- 25
2019-05-29 17:00:00 23.6 8 Sur 15 Sudeste 0 -- -- 23
2019-05-29 16:00:00 23.4 9 Nordeste 18 Nordeste 0 -- -- 23
2019-05-29 15:00:00 22 8 Sudeste 19 Sudoeste 0 -- -- 24
2019-05-29 14:00:00 20.6 9 Sudeste 21 Sur 0 -- -- 27
2019-05-29 13:00:00 19.3 8 Sudoeste 19 Sudoeste 0 -- -- 28
2019-05-29 12:00:00 17.7 4 Oeste 13 Oeste 0 -- -- 34
2019-05-29 11:00:00 16.5 6 Oeste 15 Sudoeste 0 -- -- 33
2019-05-29 10:00:00 14.7 4 Sudoeste 9 Oeste 0 -- -- 43
2019-05-29 09:00:00 11.6 3 Noroeste 6 Norte 0 -- -- 57
2019-05-29 08:00:00 8.2 3 Nordeste 9 Nordeste 0 -- -- 71
2019-05-29 07:00:00 4.8 0 Calma 7 Oeste 0 -- -- 82
2019-05-29 06:00:00 5.5 4 Este 9 Nordeste 0 -- -- 77
2019-05-29 05:00:00 6.2 5 Este 7 Nordeste 0 -- -- 74
2019-05-29 04:00:00 6 2 Este 8 Norte 0 -- -- 76
2019-05-29 03:00:00 7.9 6 Sudeste 9 Norte 0 -- -- 66
2019-05-29 02:00:00 8.9 5 Sudeste 10 Este 0 -- -- 57
2019-05-29 01:00:00 11.6 6 Sudeste 15 Este 0 -- -- 46
2019-05-29 00:00:00 12.7 7 Norte 25 Norte 0 -- -- 41
2019-05-28 23:00:00 13.9 18 Norte 31 Norte 0 -- -- 40
2019-05-28 22:00:00 16 5 Norte 20 Noroeste 0 -- -- 36
2019-05-28 21:00:00 19.5 7 Noroeste 31 Noroeste 0 -- -- 30
2019-05-28 20:00:00 20.9 21 Oeste 42 Oeste 0 -- -- 29
2019-05-28 19:00:00 22 22 Sudoeste 41 Sudoeste 0 -- -- 31
2019-05-28 18:00:00 23.6 8 Sudoeste 21 Oeste 0 -- -- 32
2019-05-28 17:00:00 23.4 9 Sudoeste 22 Sur 0 -- -- 31
2019-05-28 16:00:00 22.6 13 Sudoeste 27 Sudoeste 0 -- -- 33
2019-05-28 15:00:00 21.6 11 Sudoeste 31 Sur 0 -- -- 36
2019-05-28 14:00:00 20.2 12 Sudoeste 24 Sudoeste 0 -- -- 42
2019-05-28 13:00:00 19.3 13 Sudoeste 24 Sudoeste 0 -- -- 49
2019-05-28 12:00:00 18.2 13 Sudoeste 25 Sudoeste 0 -- -- 47
2019-05-28 11:00:00 17 11 Sudoeste 23 Sudoeste 0 -- -- 53
2019-05-28 10:00:00 15.1 10 Oeste 15 Oeste 0 -- -- 60
2019-05-28 09:00:00 13.4 3 Noroeste 6 Oeste 0 -- -- 70
2019-05-28 08:00:00 10.8 3 Norte 8 Este 0 -- -- 78
2019-05-28 07:00:00 8.8 2 Sudeste 7 Nordeste 0 -- -- 84
2019-05-28 06:00:00 9.2 5 Sudeste 9 Nordeste 0 -- -- 82
2019-05-28 05:00:00 9.1 3 Nordeste 6 Sudeste 0 -- -- 83
2019-05-28 04:00:00 9.6 3 Este 10 Sudeste 0 -- -- 82
2019-05-28 03:00:00 10.1 2 Nordeste 7 Nordeste 0 -- -- 81
2019-05-28 02:00:00 11 3 Este 7 Este 0 -- -- 78
2019-05-28 01:00:00 11.4 2 Este 8 Este 0 -- -- 81
2019-05-28 00:00:00 12.7 3 Este 10 Sudeste 0 -- -- 81